Fuji Maru — JD2030 — position and weather

sailwx.info

Track history (hours):
 
Tides and Currents Weather Stations Pressure Air Temp Water Temp Dewpoint Dewpoint Depression Visibility Wind Speed Wind Dir Waves Ship Positions

Fuji Maru

Last reported at 2015-Jul-02 22:32 UTC. Time now 2015-Jul-02 23:06 UTC.
Position N 35°39' E 139°46'.

Length 38 m; draft 4.4 m.

Type: Tug. MMSI: 431001102.

Date/timePositionNaut miles runAvg speedWind from/ knotsBaromVisibWave heightAir tempDewpointWater temp
2015-Jul-02 22:32N 35°39' E 139°46'0 0.0
2015-Jul-02 21:32N 35°39' E 139°46'0 0.0
2015-Jul-02 20:32N 35°39' E 139°46'0 0.0
2015-Jul-02 19:32N 35°39' E 139°46'0 0.0
2015-Jul-02 18:32N 35°39' E 139°46'0 0.0
2015-Jul-02 17:32N 35°39' E 139°46'0 0.0
2015-Jul-02 16:29N 35°39' E 139°46'0 0.0
2015-Jul-02 15:32N 35°39' E 139°46'0 0.0
2015-Jul-02 14:26N 35°39' E 139°46'0 0.0
2015-Jul-02 13:26N 35°39' E 139°46'0 0.0
2015-Jul-02 12:32N 35°39' E 139°46'0 0.0
2015-Jul-02 11:29N 35°39' E 139°46'3 2.9
2015-Jul-02 10:22N 35°36' E 139°47'1 0.8
2015-Jul-02 09:33N 35°35' E 139°47'0 0.4
2015-Jul-02 08:32N 35°35' E 139°47'1 1.2
2015-Jul-02 07:32N 35°37' E 139°47'1 1.1
2015-Jul-02 06:33N 35°37' E 139°46'2 1.5
2015-Jul-02 05:28N 35°39' E 139°46'0 0.0
2015-Jul-02 04:31N 35°39' E 139°46'0 0.0
2015-Jul-02 03:31N 35°39' E 139°46'0 0.0
2015-Jul-02 02:28N 35°39' E 139°46'0 0.0
2015-Jul-02 01:31N 35°39' E 139°46'0 0.0
2015-Jul-02 00:31N 35°39' E 139°46'3 2.5
2015-Jul-01 23:28N 35°36' E 139°47'0 0.3
2015-Jul-01 22:33N 35°36' E 139°47'3 2.9
2015-Jul-01 21:32N 35°39' E 139°46'0 0.0
2015-Jul-01 20:32N 35°39' E 139°46'0 0.0
2015-Jul-01 19:32N 35°39' E 139°46'0 0.0
2015-Jul-01 18:32N 35°39' E 139°46'0 0.0
2015-Jul-01 17:32N 35°39' E 139°46'0 0.0
2015-Jul-01 16:32N 35°39' E 139°46'0 0.0
2015-Jul-01 15:32N 35°39' E 139°46'0 0.0
2015-Jul-01 14:32N 35°39' E 139°46'0 0.0
2015-Jul-01 13:29N 35°39' E 139°46'0 0.0
2015-Jul-01 12:32N 35°39' E 139°46'0 0.0
2015-Jul-01 11:26N 35°39' E 139°46'0 0.0
2015-Jul-01 10:32N 35°39' E 139°46'0 0.0
2015-Jul-01 09:20N 35°39' E 139°46'0 0.0
2015-Jul-01 08:33N 35°39' E 139°46'4 3.7
2015-Jul-01 07:33N 35°35' E 139°47'1 0.6
2015-Jul-01 06:17N 35°36' E 139°47'1 1.9
2015-Jul-01 05:33N 35°35' E 139°48'4 4.3
2015-Jul-01 04:33N 35°39' E 139°46'0 0.0
2015-Jul-01 03:24N 35°39' E 139°46'0 0.0
2015-Jul-01 02:33N 35°39' E 139°46'0 0.0
2015-Jul-01 01:33N 35°39' E 139°46'0 0.0
2015-Jul-01 00:27N 35°39' E 139°46'0 0.0
2015-Jun-30 23:27N 35°39' E 139°46'3 3.6
2015-Jun-30 22:30N 35°35' E 139°47'1 0.6
2015-Jun-30 21:33N 35°36' E 139°47'3 2.9
2015-Jun-30 20:31N 35°39' E 139°46'0 0.0
2015-Jun-30 19:31N 35°39' E 139°46'0 0.0
2015-Jun-30 18:31N 35°39' E 139°46'0 0.0
2015-Jun-30 17:28N 35°39' E 139°46'0 0.0
2015-Jun-30 16:28N 35°39' E 139°46'0 0.0
2015-Jun-30 15:31N 35°39' E 139°46'0 0.0
2015-Jun-30 14:25N 35°39' E 139°46'0 0.0
2015-Jun-30 13:28N 35°39' E 139°46'0 0.0
2015-Jun-30 12:28N 35°39' E 139°46'0 0.0
2015-Jun-30 11:28N 35°39' E 139°46'0 0.0
2015-Jun-30 10:25N 35°39' E 139°46'0 0.0
2015-Jun-30 09:25N 35°39' E 139°46'0 0.0
2015-Jun-30 08:28N 35°39' E 139°46'0 0.0
2015-Jun-30 07:31N 35°39' E 139°46'0 0.0
2015-Jun-30 06:31N 35°39' E 139°46'0 0.0
2015-Jun-30 05:28N 35°39' E 139°46'0 0.0
2015-Jun-30 04:28N 35°39' E 139°46'0 0.0
2015-Jun-30 03:28N 35°39' E 139°46'0 0.0
2015-Jun-30 02:31N 35°39' E 139°46'0 0.0
2015-Jun-30 01:31N 35°39' E 139°46'0 0.0
2015-Jun-30 00:22N 35°39' E 139°46'0 0.0
2015-Jun-29 23:22N 35°39' E 139°46'0 0.0
2015-Jun-29 22:28N 35°39' E 139°46'0 0.0
2015-Jun-29 21:31N 35°39' E 139°46'0 0.0
2015-Jun-29 20:31N 35°39' E 139°46'0 0.0
2015-Jun-29 19:31N 35°39' E 139°46'3 3.5
2015-Jun-29 18:33N 35°36' E 139°47'2 1.7
2015-Jun-29 17:33N 35°37' E 139°46'1 0.9
2015-Jun-29 16:31N 35°38' E 139°46'2 1.9
2015-Jun-29 15:33N 35°36' E 139°46'1 0.7
2015-Jun-29 14:33N 35°37' E 139°46'1 1.4
2015-Jun-29 13:33N 35°38' E 139°46'0 0.0
2015-Jun-29 12:33N 35°38' E 139°46'0 0.0
2015-Jun-29 11:30N 35°38' E 139°46'0 0.0
2015-Jun-29 10:30N 35°38' E 139°46'2 2.1
2015-Jun-29 09:33N 35°36' E 139°46'1 0.8
2015-Jun-29 08:33N 35°36' E 139°47'0 0.3
2015-Jun-29 07:33N 35°35' E 139°46'1 0.5
2015-Jun-29 06:34N 35°35' E 139°47'3 3.4
2015-Jun-29 05:32N 35°39' E 139°46'0 0.0
2015-Jun-29 04:32N 35°39' E 139°46'0 0.0
2015-Jun-29 03:32N 35°39' E 139°46'0 0.0
2015-Jun-29 02:29N 35°39' E 139°46'0 0.0
2015-Jun-29 01:29N 35°39' E 139°46'0 0.0
2015-Jun-29 00:32N 35°39' E 139°46'0 0.1
2015-Jun-28 23:33N 35°39' E 139°46'3 3.1
2015-Jun-28 22:32N 35°36' E 139°47'2 2.5
2015-Jun-28 21:33N 35°34' E 139°49'5 4.9
2015-Jun-28 20:28N 35°39' E 139°46'0 0.0
2015-Jun-28 19:31N 35°39' E 139°46'0 0.0
2015-Jun-28 18:28N 35°39' E 139°46'0 0.0
2015-Jun-28 17:28N 35°39' E 139°46'0 0.0
2015-Jun-28 16:28N 35°39' E 139°46'0 0.0
2015-Jun-28 15:28N 35°39' E 139°46'0 0.0
2015-Jun-28 14:28N 35°39' E 139°46'0 0.0
2015-Jun-28 13:31N 35°39' E 139°46'0 0.0
2015-Jun-28 12:28N 35°39' E 139°46'0 0.0
2015-Jun-28 11:22N 35°39' E 139°46'0 0.0
2015-Jun-28 10:22N 35°39' E 139°46'0 0.0
2015-Jun-28 09:28N 35°39' E 139°46'0 0.0
2015-Jun-28 08:31N 35°39' E 139°46'0 0.0
2015-Jun-28 07:31N 35°39' E 139°46'0 0.0
2015-Jun-28 06:28N 35°39' E 139°46'0 0.0
2015-Jun-28 05:31N 35°39' E 139°46'0 0.0
2015-Jun-28 04:28N 35°39' E 139°46'0 0.0
2015-Jun-28 03:31N 35°39' E 139°46'0 0.0
2015-Jun-28 02:31N 35°39' E 139°46'0 0.0
2015-Jun-28 01:31N 35°39' E 139°46'0 0.0
2015-Jun-28 00:31N 35°39' E 139°46'0 0.0
2015-Jun-27 23:31N 35°39' E 139°46'0 0.0
2015-Jun-27 22:31N 35°39' E 139°46'0 0.0
2015-Jun-27 21:28N 35°39' E 139°46'0 0.0
2015-Jun-27 20:22N 35°39' E 139°46'0 0.0
2015-Jun-27 19:22N 35°39' E 139°46'0 0.0
2015-Jun-27 18:25N 35°39' E 139°46'0 0.0
2015-Jun-27 17:22N 35°39' E 139°46'0 0.0
2015-Jun-27 16:28N 35°39' E 139°46'0 0.0
2015-Jun-27 15:22N 35°39' E 139°46'0 0.0
2015-Jun-27 14:13N 35°39' E 139°46'0 0.0
2015-Jun-27 13:28N 35°39' E 139°46'0 0.0
2015-Jun-27 12:28N 35°39' E 139°46'0 0.0
2015-Jun-27 11:31N 35°39' E 139°46'0 0.0
2015-Jun-27 10:22N 35°39' E 139°46'0 0.0
2015-Jun-27 09:31N 35°39' E 139°46'0 0.0
2015-Jun-27 08:28N 35°39' E 139°46'0 0.0
2015-Jun-27 07:22N 35°39' E 139°46'0 0.0
2015-Jun-27 06:22N 35°39' E 139°46'0 0.0
2015-Jun-27 05:28N 35°39' E 139°46'0 0.0
2015-Jun-27 04:28N 35°39' E 139°46'0 0.0
2015-Jun-27 03:07N 35°39' E 139°46'0 0.0
2015-Jun-27 02:19N 35°39' E 139°46'0 0.0
2015-Jun-27 01:28N 35°39' E 139°46'0 0.0
2015-Jun-27 00:31N 35°39' E 139°46'0 0.0
2015-Jun-26 23:28N 35°39' E 139°46'0 0.0
2015-Jun-26 22:28N 35°39' E 139°46'0 0.0
2015-Jun-26 21:22N 35°39' E 139°46'0 0.0
2015-Jun-26 20:31N 35°39' E 139°46'0 0.0
2015-Jun-26 19:28N 35°39' E 139°46'0 0.0
2015-Jun-26 18:25N 35°39' E 139°46'0 0.0
2015-Jun-26 17:07N 35°39' E 139°46'0 0.0
2015-Jun-26 16:19N 35°39' E 139°46'0 0.0
2015-Jun-26 15:31N 35°39' E 139°46'0 0.0
2015-Jun-26 14:28N 35°39' E 139°46'0 0.0
2015-Jun-26 13:31N 35°39' E 139°46'0 0.0
2015-Jun-26 12:28N 35°39' E 139°46'0 0.0
2015-Jun-26 11:31N 35°39' E 139°46'0 0.0
2015-Jun-26 10:31N 35°39' E 139°46'0 0.0
2015-Jun-26 09:31N 35°39' E 139°46'0 0.0
2015-Jun-26 08:31N 35°39' E 139°46'0 0.0
2015-Jun-26 07:22N 35°39' E 139°46'0 0.0
2015-Jun-26 06:31N 35°39' E 139°46'0 0.0
2015-Jun-26 05:16N 35°39' E 139°46'0 0.0
2015-Jun-26 04:25N 35°39' E 139°46'0 0.0
2015-Jun-26 03:31N 35°39' E 139°46'0 0.0
2015-Jun-26 02:31N 35°39' E 139°46'0 0.0
2015-Jun-26 01:31N 35°39' E 139°46'0 0.0
2015-Jun-26 00:31N 35°39' E 139°46'0 0.0
2015-Jun-25 23:28N 35°39' E 139°46'3 3.0
2015-Jun-25 22:33N 35°36' E 139°46'2 2.5
2015-Jun-25 21:33N 35°35' E 139°49'3 2.7
2015-Jun-25 20:33N 35°37' E 139°46'1 1.5
2015-Jun-25 19:33N 35°38' E 139°46'0 0.1
2015-Jun-25 18:33N 35°38' E 139°45'1 0.6
2015-Jun-25 17:31N 35°39' E 139°46'0 0.0
2015-Jun-25 16:28N 35°39' E 139°46'0 0.0
2015-Jun-25 15:31N 35°39' E 139°46'0 0.0
2015-Jun-25 14:28N 35°39' E 139°46'0 0.0
2015-Jun-25 13:31N 35°39' E 139°46'0 0.0
2015-Jun-25 12:31N 35°39' E 139°46'0 0.0
2015-Jun-25 11:31N 35°39' E 139°46'0 0.0
2015-Jun-25 10:28N 35°39' E 139°46'0 0.0
2015-Jun-25 09:22N 35°39' E 139°46'0 0.0
2015-Jun-25 08:28N 35°39' E 139°46'0 0.0
2015-Jun-25 07:31N 35°39' E 139°46'0 0.0
2015-Jun-25 06:31N 35°39' E 139°46'0 0.0
2015-Jun-25 05:31N 35°39' E 139°46'0 0.0
2015-Jun-25 04:31N 35°39' E 139°46'2 2.5
2015-Jun-25 03:33N 35°37' E 139°47'1 1.0
2015-Jun-25 02:33N 35°37' E 139°46'2 1.5
2015-Jun-25 01:32N 35°39' E 139°46'0 0.0
2015-Jun-25 00:32N 35°39' E 139°46'0 0.0
2015-Jun-24 23:32N 35°39' E 139°46'0 0.0
2015-Jun-24 22:32N 35°39' E 139°46'0 0.0
2015-Jun-24 21:32N 35°39' E 139°46'0 0.0
2015-Jun-24 20:32N 35°39' E 139°46'0 0.0
2015-Jun-24 19:32N 35°39' E 139°46'0 0.0
2015-Jun-24 18:32N 35°39' E 139°46'0 0.0
2015-Jun-24 17:26N 35°39' E 139°46'0 0.0
2015-Jun-24 16:17N 35°39' E 139°46'0 0.0
2015-Jun-24 15:32N 35°39' E 139°46'0 0.0
2015-Jun-24 14:32N 35°39' E 139°46'0 0.0
2015-Jun-24 13:32N 35°39' E 139°46'2 2.4
2015-Jun-24 12:33N 35°36' E 139°46'2 1.8
2015-Jun-24 11:33N 35°38' E 139°45'1 0.6
2015-Jun-24 10:32N 35°39' E 139°46'0 0.0
2015-Jun-24 09:29N 35°39' E 139°46'0 0.2
2015-Jun-24 08:34N 35°39' E 139°46'2 1.5
2015-Jun-24 07:33N 35°37' E 139°46'2 1.6
2015-Jun-24 06:31N 35°39' E 139°46'0 0.0
2015-Jun-24 05:28N 35°39' E 139°46'0 0.0
2015-Jun-24 04:28N 35°39' E 139°46'0 0.0
2015-Jun-24 03:28N 35°39' E 139°46'0 0.0
2015-Jun-24 02:25N 35°39' E 139°46'0 0.0
2015-Jun-24 01:31N 35°39' E 139°46'0 0.0
2015-Jun-24 00:31N 35°39' E 139°46'0 0.0
2015-Jun-23 23:28N 35°39' E 139°46'2 2.4
2015-Jun-23 22:33N 35°37' E 139°46'3 2.6
2015-Jun-23 21:33N 35°35' E 139°48'5 4.7
2015-Jun-23 20:33N 35°39' E 139°46'0 0.0
2015-Jun-23 19:33N 35°39' E 139°46'0 0.0
2015-Jun-23 18:57N 35°39' E 139°46'  
Track history (hours):
 
Tides and Currents Weather Stations Pressure Air Temp Water Temp Dewpoint Dewpoint Depression Visibility Wind Speed Wind Dir Waves Ship Positions

Fuji Maru

Last reported at 2015-Jul-02 22:32 UTC. Time now 2015-Jul-02 23:06 UTC.
Position N 35°39' E 139°46'.

Length 38 m; draft 4.4 m.

Type: Tug. MMSI: 431001102.

Date/timePositionNaut miles runAvg speedWind from/ knotsBaromVisibWave heightAir tempDewpointWater temp
2015-Jul-02 22:32N 35°39' E 139°46'0 0.0
2015-Jul-02 21:32N 35°39' E 139°46'0 0.0
2015-Jul-02 20:32N 35°39' E 139°46'0 0.0
2015-Jul-02 19:32N 35°39' E 139°46'0 0.0
2015-Jul-02 18:32N 35°39' E 139°46'0 0.0
2015-Jul-02 17:32N 35°39' E 139°46'0 0.0
2015-Jul-02 16:29N 35°39' E 139°46'0 0.0
2015-Jul-02 15:32N 35°39' E 139°46'0 0.0
2015-Jul-02 14:26N 35°39' E 139°46'0 0.0
2015-Jul-02 13:26N 35°39' E 139°46'0 0.0
2015-Jul-02 12:32N 35°39' E 139°46'0 0.0
2015-Jul-02 11:29N 35°39' E 139°46'3 2.9
2015-Jul-02 10:22N 35°36' E 139°47'1 0.8
2015-Jul-02 09:33N 35°35' E 139°47'0 0.4
2015-Jul-02 08:32N 35°35' E 139°47'1 1.2
2015-Jul-02 07:32N 35°37' E 139°47'1 1.1
2015-Jul-02 06:33N 35°37' E 139°46'2 1.5
2015-Jul-02 05:28N 35°39' E 139°46'0 0.0
2015-Jul-02 04:31N 35°39' E 139°46'0 0.0
2015-Jul-02 03:31N 35°39' E 139°46'0 0.0
2015-Jul-02 02:28N 35°39' E 139°46'0 0.0
2015-Jul-02 01:31N 35°39' E 139°46'0 0.0
2015-Jul-02 00:31N 35°39' E 139°46'3 2.5
2015-Jul-01 23:28N 35°36' E 139°47'0 0.3
2015-Jul-01 22:33N 35°36' E 139°47'3 2.9
2015-Jul-01 21:32N 35°39' E 139°46'0 0.0
2015-Jul-01 20:32N 35°39' E 139°46'0 0.0
2015-Jul-01 19:32N 35°39' E 139°46'0 0.0
2015-Jul-01 18:32N 35°39' E 139°46'0 0.0
2015-Jul-01 17:32N 35°39' E 139°46'0 0.0
2015-Jul-01 16:32N 35°39' E 139°46'0 0.0
2015-Jul-01 15:32N 35°39' E 139°46'0 0.0
2015-Jul-01 14:32N 35°39' E 139°46'0 0.0
2015-Jul-01 13:29N 35°39' E 139°46'0 0.0
2015-Jul-01 12:32N 35°39' E 139°46'0 0.0
2015-Jul-01 11:26N 35°39' E 139°46'0 0.0
2015-Jul-01 10:32N 35°39' E 139°46'0 0.0
2015-Jul-01 09:20N 35°39' E 139°46'0 0.0
2015-Jul-01 08:33N 35°39' E 139°46'4 3.7
2015-Jul-01 07:33N 35°35' E 139°47'1 0.6
2015-Jul-01 06:17N 35°36' E 139°47'1 1.9
2015-Jul-01 05:33N 35°35' E 139°48'4 4.3
2015-Jul-01 04:33N 35°39' E 139°46'0 0.0
2015-Jul-01 03:24N 35°39' E 139°46'0 0.0
2015-Jul-01 02:33N 35°39' E 139°46'0 0.0
2015-Jul-01 01:33N 35°39' E 139°46'0 0.0
2015-Jul-01 00:27N 35°39' E 139°46'0 0.0
2015-Jun-30 23:27N 35°39' E 139°46'3 3.6
2015-Jun-30 22:30N 35°35' E 139°47'1 0.6
2015-Jun-30 21:33N 35°36' E 139°47'3 2.9
2015-Jun-30 20:31N 35°39' E 139°46'0 0.0
2015-Jun-30 19:31N 35°39' E 139°46'0 0.0
2015-Jun-30 18:31N 35°39' E 139°46'0 0.0
2015-Jun-30 17:28N 35°39' E 139°46'0 0.0
2015-Jun-30 16:28N 35°39' E 139°46'0 0.0
2015-Jun-30 15:31N 35°39' E 139°46'0 0.0
2015-Jun-30 14:25N 35°39' E 139°46'0 0.0
2015-Jun-30 13:28N 35°39' E 139°46'0 0.0
2015-Jun-30 12:28N 35°39' E 139°46'0 0.0
2015-Jun-30 11:28N 35°39' E 139°46'0 0.0
2015-Jun-30 10:25N 35°39' E 139°46'0 0.0
2015-Jun-30 09:25N 35°39' E 139°46'0 0.0
2015-Jun-30 08:28N 35°39' E 139°46'0 0.0
2015-Jun-30 07:31N 35°39' E 139°46'0 0.0
2015-Jun-30 06:31N 35°39' E 139°46'0 0.0
2015-Jun-30 05:28N 35°39' E 139°46'0 0.0
2015-Jun-30 04:28N 35°39' E 139°46'0 0.0
2015-Jun-30 03:28N 35°39' E 139°46'0 0.0
2015-Jun-30 02:31N 35°39' E 139°46'0 0.0
2015-Jun-30 01:31N 35°39' E 139°46'0 0.0
2015-Jun-30 00:22N 35°39' E 139°46'0 0.0
2015-Jun-29 23:22N 35°39' E 139°46'0 0.0
2015-Jun-29 22:28N 35°39' E 139°46'0 0.0
2015-Jun-29 21:31N 35°39' E 139°46'0 0.0
2015-Jun-29 20:31N 35°39' E 139°46'0 0.0
2015-Jun-29 19:31N 35°39' E 139°46'3 3.5
2015-Jun-29 18:33N 35°36' E 139°47'2 1.7
2015-Jun-29 17:33N 35°37' E 139°46'1 0.9
2015-Jun-29 16:31N 35°38' E 139°46'2 1.9
2015-Jun-29 15:33N 35°36' E 139°46'1 0.7
2015-Jun-29 14:33N 35°37' E 139°46'1 1.4
2015-Jun-29 13:33N 35°38' E 139°46'0 0.0
2015-Jun-29 12:33N 35°38' E 139°46'0 0.0
2015-Jun-29 11:30N 35°38' E 139°46'0 0.0
2015-Jun-29 10:30N 35°38' E 139°46'2 2.1
2015-Jun-29 09:33N 35°36' E 139°46'1 0.8
2015-Jun-29 08:33N 35°36' E 139°47'0 0.3
2015-Jun-29 07:33N 35°35' E 139°46'1 0.5
2015-Jun-29 06:34N 35°35' E 139°47'3 3.4
2015-Jun-29 05:32N 35°39' E 139°46'0 0.0
2015-Jun-29 04:32N 35°39' E 139°46'0 0.0
2015-Jun-29 03:32N 35°39' E 139°46'0 0.0
2015-Jun-29 02:29N 35°39' E 139°46'0 0.0
2015-Jun-29 01:29N 35°39' E 139°46'0 0.0
2015-Jun-29 00:32N 35°39' E 139°46'0 0.1
2015-Jun-28 23:33N 35°39' E 139°46'3 3.1
2015-Jun-28 22:32N 35°36' E 139°47'2 2.5
2015-Jun-28 21:33N 35°34' E 139°49'5 4.9
2015-Jun-28 20:28N 35°39' E 139°46'0 0.0
2015-Jun-28 19:31N 35°39' E 139°46'0 0.0
2015-Jun-28 18:28N 35°39' E 139°46'0 0.0
2015-Jun-28 17:28N 35°39' E 139°46'0 0.0
2015-Jun-28 16:28N 35°39' E 139°46'0 0.0
2015-Jun-28 15:28N 35°39' E 139°46'0 0.0
2015-Jun-28 14:28N 35°39' E 139°46'0 0.0
2015-Jun-28 13:31N 35°39' E 139°46'0 0.0
2015-Jun-28 12:28N 35°39' E 139°46'0 0.0
2015-Jun-28 11:22N 35°39' E 139°46'0 0.0
2015-Jun-28 10:22N 35°39' E 139°46'0 0.0
2015-Jun-28 09:28N 35°39' E 139°46'0 0.0
2015-Jun-28 08:31N 35°39' E 139°46'0 0.0
2015-Jun-28 07:31N 35°39' E 139°46'0 0.0
2015-Jun-28 06:28N 35°39' E 139°46'0 0.0
2015-Jun-28 05:31N 35°39' E 139°46'0 0.0
2015-Jun-28 04:28N 35°39' E 139°46'0 0.0
2015-Jun-28 03:31N 35°39' E 139°46'0 0.0
2015-Jun-28 02:31N 35°39' E 139°46'0 0.0
2015-Jun-28 01:31N 35°39' E 139°46'0 0.0
2015-Jun-28 00:31N 35°39' E 139°46'0 0.0
2015-Jun-27 23:31N 35°39' E 139°46'0 0.0
2015-Jun-27 22:31N 35°39' E 139°46'0 0.0
2015-Jun-27 21:28N 35°39' E 139°46'0 0.0
2015-Jun-27 20:22N 35°39' E 139°46'0 0.0
2015-Jun-27 19:22N 35°39' E 139°46'0 0.0
2015-Jun-27 18:25N 35°39' E 139°46'0 0.0
2015-Jun-27 17:22N 35°39' E 139°46'0 0.0
2015-Jun-27 16:28N 35°39' E 139°46'0 0.0
2015-Jun-27 15:22N 35°39' E 139°46'0 0.0
2015-Jun-27 14:13N 35°39' E 139°46'0 0.0
2015-Jun-27 13:28N 35°39' E 139°46'0 0.0
2015-Jun-27 12:28N 35°39' E 139°46'0 0.0
2015-Jun-27 11:31N 35°39' E 139°46'0 0.0
2015-Jun-27 10:22N 35°39' E 139°46'0 0.0
2015-Jun-27 09:31N 35°39' E 139°46'0 0.0
2015-Jun-27 08:28N 35°39' E 139°46'0 0.0
2015-Jun-27 07:22N 35°39' E 139°46'0 0.0
2015-Jun-27 06:22N 35°39' E 139°46'0 0.0
2015-Jun-27 05:28N 35°39' E 139°46'0 0.0
2015-Jun-27 04:28N 35°39' E 139°46'0 0.0
2015-Jun-27 03:07N 35°39' E 139°46'0 0.0
2015-Jun-27 02:19N 35°39' E 139°46'0 0.0
2015-Jun-27 01:28N 35°39' E 139°46'0 0.0
2015-Jun-27 00:31N 35°39' E 139°46'0 0.0
2015-Jun-26 23:28N 35°39' E 139°46'0 0.0
2015-Jun-26 22:28N 35°39' E 139°46'0 0.0
2015-Jun-26 21:22N 35°39' E 139°46'0 0.0
2015-Jun-26 20:31N 35°39' E 139°46'0 0.0
2015-Jun-26 19:28N 35°39' E 139°46'0 0.0
2015-Jun-26 18:25N 35°39' E 139°46'0 0.0
2015-Jun-26 17:07N 35°39' E 139°46'0 0.0
2015-Jun-26 16:19N 35°39' E 139°46'0 0.0
2015-Jun-26 15:31N 35°39' E 139°46'0 0.0
2015-Jun-26 14:28N 35°39' E 139°46'0 0.0
2015-Jun-26 13:31N 35°39' E 139°46'0 0.0
2015-Jun-26 12:28N 35°39' E 139°46'0 0.0
2015-Jun-26 11:31N 35°39' E 139°46'0 0.0
2015-Jun-26 10:31N 35°39' E 139°46'0 0.0
2015-Jun-26 09:31N 35°39' E 139°46'0 0.0
2015-Jun-26 08:31N 35°39' E 139°46'0 0.0
2015-Jun-26 07:22N 35°39' E 139°46'0 0.0
2015-Jun-26 06:31N 35°39' E 139°46'0 0.0
2015-Jun-26 05:16N 35°39' E 139°46'0 0.0
2015-Jun-26 04:25N 35°39' E 139°46'0 0.0
2015-Jun-26 03:31N 35°39' E 139°46'0 0.0
2015-Jun-26 02:31N 35°39' E 139°46'0 0.0
2015-Jun-26 01:31N 35°39' E 139°46'0 0.0
2015-Jun-26 00:31N 35°39' E 139°46'0 0.0
2015-Jun-25 23:28N 35°39' E 139°46'3 3.0
2015-Jun-25 22:33N 35°36' E 139°46'2 2.5
2015-Jun-25 21:33N 35°35' E 139°49'3 2.7
2015-Jun-25 20:33N 35°37' E 139°46'1 1.5
2015-Jun-25 19:33N 35°38' E 139°46'0 0.1
2015-Jun-25 18:33N 35°38' E 139°45'1 0.6
2015-Jun-25 17:31N 35°39' E 139°46'0 0.0
2015-Jun-25 16:28N 35°39' E 139°46'0 0.0
2015-Jun-25 15:31N 35°39' E 139°46'0 0.0
2015-Jun-25 14:28N 35°39' E 139°46'0 0.0
2015-Jun-25 13:31N 35°39' E 139°46'0 0.0
2015-Jun-25 12:31N 35°39' E 139°46'0 0.0
2015-Jun-25 11:31N 35°39' E 139°46'0 0.0
2015-Jun-25 10:28N 35°39' E 139°46'0 0.0
2015-Jun-25 09:22N 35°39' E 139°46'0 0.0
2015-Jun-25 08:28N 35°39' E 139°46'0 0.0
2015-Jun-25 07:31N 35°39' E 139°46'0 0.0
2015-Jun-25 06:31N 35°39' E 139°46'0 0.0
2015-Jun-25 05:31N 35°39' E 139°46'0 0.0
2015-Jun-25 04:31N 35°39' E 139°46'2 2.5
2015-Jun-25 03:33N 35°37' E 139°47'1 1.0
2015-Jun-25 02:33N 35°37' E 139°46'2 1.5
2015-Jun-25 01:32N 35°39' E 139°46'0 0.0
2015-Jun-25 00:32N 35°39' E 139°46'0 0.0
2015-Jun-24 23:32N 35°39' E 139°46'0 0.0
2015-Jun-24 22:32N 35°39' E 139°46'0 0.0
2015-Jun-24 21:32N 35°39' E 139°46'0 0.0
2015-Jun-24 20:32N 35°39' E 139°46'0 0.0
2015-Jun-24 19:32N 35°39' E 139°46'0 0.0
2015-Jun-24 18:32N 35°39' E 139°46'0 0.0
2015-Jun-24 17:26N 35°39' E 139°46'0 0.0
2015-Jun-24 16:17N 35°39' E 139°46'0 0.0
2015-Jun-24 15:32N 35°39' E 139°46'0 0.0
2015-Jun-24 14:32N 35°39' E 139°46'0 0.0
2015-Jun-24 13:32N 35°39' E 139°46'2 2.4
2015-Jun-24 12:33N 35°36' E 139°46'2 1.8
2015-Jun-24 11:33N 35°38' E 139°45'1 0.6
2015-Jun-24 10:32N 35°39' E 139°46'0 0.0
2015-Jun-24 09:29N 35°39' E 139°46'0 0.2
2015-Jun-24 08:34N 35°39' E 139°46'2 1.5
2015-Jun-24 07:33N 35°37' E 139°46'2 1.6
2015-Jun-24 06:31N 35°39' E 139°46'0 0.0
2015-Jun-24 05:28N 35°39' E 139°46'0 0.0
2015-Jun-24 04:28N 35°39' E 139°46'0 0.0
2015-Jun-24 03:28N 35°39' E 139°46'0 0.0
2015-Jun-24 02:25N 35°39' E 139°46'0 0.0
2015-Jun-24 01:31N 35°39' E 139°46'0 0.0
2015-Jun-24 00:31N 35°39' E 139°46'0 0.0
2015-Jun-23 23:28N 35°39' E 139°46'2 2.4
2015-Jun-23 22:33N 35°37' E 139°46'3 2.6
2015-Jun-23 21:33N 35°35' E 139°48'5 4.7
2015-Jun-23 20:33N 35°39' E 139°46'0 0.0
2015-Jun-23 19:33N 35°39' E 139°46'0 0.0
2015-Jun-23 18:57N 35°39' E 139°46'  

Dump ship's entire track history